Terminal Aerodrome Forecast
Issued by NWS Jackson, KY

Home | Current Version | Previous Version | Text Only | Print | Product List | Glossary On
Versions: 1 2 3 4 5 6 7 8 9 10 11 12 13 14 15 16
603
FTUS43 KJKL 261120
TAFLOZ
TAF
KLOZ 261120Z 2612/2712 21005KT P6SM SCT250
     FM261400 25010G15KT P6SM BKN060
     FM270000 21005KT P6SM VCTS BKN060CB
     FM270600 VRB03KT P6SM VCSH OVC030=

USA.gov is the U.S. government's official web portal to all federal, state and local government web resources and services.